sensor_id;sensor_type;location;lat;lon;timestamp;temperature;humidity
21255;DHT22;10785;50.674;17.954;2023-02-10T00:02:09;-1.60;98.20
21255;DHT22;10785;50.674;17.954;2023-02-10T00:04:39;-1.70;98.20
21255;DHT22;10785;50.674;17.954;2023-02-10T00:07:08;-1.70;98.40
21255;DHT22;10785;50.674;17.954;2023-02-10T00:09:36;-1.70;98.90
21255;DHT22;10785;50.674;17.954;2023-02-10T00:12:05;-1.80;98.90
21255;DHT22;10785;50.674;17.954;2023-02-10T00:14:35;-1.80;98.90
21255;DHT22;10785;50.674;17.954;2023-02-10T00:17:04;-1.80;99.00
21255;DHT22;10785;50.674;17.954;2023-02-10T00:19:33;-1.90;99.30
21255;DHT22;10785;50.674;17.954;2023-02-10T00:22:03;-1.90;99.30
21255;DHT22;10785;50.674;17.954;2023-02-10T00:24:32;-1.90;99.80
21255;DHT22;10785;50.674;17.954;2023-02-10T00:27:01;-1.90;99.90
21255;DHT22;10785;50.674;17.954;2023-02-10T00:29:30;-1.90;99.90
21255;DHT22;10785;50.674;17.954;2023-02-10T00:32:00;-2.00;99.90
21255;DHT22;10785;50.674;17.954;2023-02-10T00:34:29;-1.90;99.90
21255;DHT22;10785;50.674;17.954;2023-02-10T00:36:58;-1.90;99.90
21255;DHT22;10785;50.674;17.954;2023-02-10T00:39:28;-2.00;99.90
21255;DHT22;10785;50.674;17.954;2023-02-10T00:41:56;-2.00;99.90
21255;DHT22;10785;50.674;17.954;2023-02-10T00:44:25;-2.00;99.90
21255;DHT22;10785;50.674;17.954;2023-02-10T00:46:54;-2.00;99.90
21255;DHT22;10785;50.674;17.954;2023-02-10T01:24:27;-2.00;99.60
21255;DHT22;10785;50.674;17.954;2023-02-10T01:26:56;-2.00;99.10
21255;DHT22;10785;50.674;17.954;2023-02-10T01:29:25;-2.00;99.30
21255;DHT22;10785;50.674;17.954;2023-02-10T01:31:53;-2.00;99.30
21255;DHT22;10785;50.674;17.954;2023-02-10T01:34:22;-2.00;99.20
21255;DHT22;10785;50.674;17.954;2023-02-10T01:36:51;-2.10;98.80
21255;DHT22;10785;50.674;17.954;2023-02-10T01:39:19;-2.10;98.90
21255;DHT22;10785;50.674;17.954;2023-02-10T01:41:49;-2.20;98.70
21255;DHT22;10785;50.674;17.954;2023-02-10T01:47:24;-2.20;99.40
21255;DHT22;10785;50.674;17.954;2023-02-10T01:49:55;-2.30;99.20
21255;DHT22;10785;50.674;17.954;2023-02-10T01:52:26;-2.40;99.90
21255;DHT22;10785;50.674;17.954;2023-02-10T01:55:00;-2.40;99.90
21255;DHT22;10785;50.674;17.954;2023-02-10T01:57:33;-2.40;99.90
21255;DHT22;10785;50.674;17.954;2023-02-10T02:00:04;-2.40;99.90
21255;DHT22;10785;50.674;17.954;2023-02-10T02:02:40;-2.40;99.90
21255;DHT22;10785;50.674;17.954;2023-02-10T02:05:22;-2.40;99.90
21255;DHT22;10785;50.674;17.954;2023-02-10T02:07:58;-2.40;99.90
21255;DHT22;10785;50.674;17.954;2023-02-10T02:10:37;-2.40;99.90
21255;DHT22;10785;50.674;17.954;2023-02-10T02:13:12;-2.50;99.90
21255;DHT22;10785;50.674;17.954;2023-02-10T02:15:49;-2.50;99.90
21255;DHT22;10785;50.674;17.954;2023-02-10T02:18:26;-2.50;99.90
21255;DHT22;10785;50.674;17.954;2023-02-10T02:21:46;-2.50;99.90
21255;DHT22;10785;50.674;17.954;2023-02-10T02:24:32;-2.60;99.90
21255;DHT22;10785;50.674;17.954;2023-02-10T02:27:33;-2.60;99.90
21255;DHT22;10785;50.674;17.954;2023-02-10T02:30:38;-2.60;99.90
21255;DHT22;10785;50.674;17.954;2023-02-10T02:33:16;-2.60;99.90
21255;DHT22;10785;50.674;17.954;2023-02-10T02:35:52;-2.60;99.90
21255;DHT22;10785;50.674;17.954;2023-02-10T02:38:22;-2.70;99.90
21255;DHT22;10785;50.674;17.954;2023-02-10T02:40:51;-2.70;99.90
21255;DHT22;10785;50.674;17.954;2023-02-10T02:43:20;-2.70;99.90
21255;DHT22;10785;50.674;17.954;2023-02-10T02:45:53;-2.80;99.90
21255;DHT22;10785;50.674;17.954;2023-02-10T02:48:34;-2.80;99.90
21255;DHT22;10785;50.674;17.954;2023-02-10T02:51:13;-2.80;99.90
21255;DHT22;10785;50.674;17.954;2023-02-10T02:53:45;-2.80;99.90
21255;DHT22;10785;50.674;17.954;2023-02-10T02:56:21;-2.80;99.90
21255;DHT22;10785;50.674;17.954;2023-02-10T02:58:56;-2.90;99.90
21255;DHT22;10785;50.674;17.954;2023-02-10T03:01:28;-2.80;99.90
21255;DHT22;10785;50.674;17.954;2023-02-10T03:03:59;-2.80;99.90
21255;DHT22;10785;50.674;17.954;2023-02-10T03:06:32;-2.80;99.90
21255;DHT22;10785;50.674;17.954;2023-02-10T03:09:01;-2.80;99.90
21255;DHT22;10785;50.674;17.954;2023-02-10T03:11:30;-2.80;99.90
21255;DHT22;10785;50.674;17.954;2023-02-10T03:13:59;-2.80;99.90
21255;DHT22;10785;50.674;17.954;2023-02-10T03:16:28;-2.80;99.90
21255;DHT22;10785;50.674;17.954;2023-02-10T03:18:56;-2.80;99.90
21255;DHT22;10785;50.674;17.954;2023-02-10T03:21:26;-2.80;99.90
21255;DHT22;10785;50.674;17.954;2023-02-10T03:23:55;-2.80;99.90
21255;DHT22;10785;50.674;17.954;2023-02-10T03:26:24;-2.80;99.90
21255;DHT22;10785;50.674;17.954;2023-02-10T03:28:52;-2.80;99.90
21255;DHT22;10785;50.674;17.954;2023-02-10T03:31:21;-2.90;99.90
21255;DHT22;10785;50.674;17.954;2023-02-10T03:33:50;-2.90;99.90
21255;DHT22;10785;50.674;17.954;2023-02-10T03:36:19;-3.00;99.90
21255;DHT22;10785;50.674;17.954;2023-02-10T03:38:49;-2.90;99.90
21255;DHT22;10785;50.674;17.954;2023-02-10T03:41:17;-2.80;99.90
21255;DHT22;10785;50.674;17.954;2023-02-10T03:43:46;-2.90;99.90
21255;DHT22;10785;50.674;17.954;2023-02-10T03:46:14;-2.90;99.90
21255;DHT22;10785;50.674;17.954;2023-02-10T03:48:43;-2.90;99.90
21255;DHT22;10785;50.674;17.954;2023-02-10T03:51:12;-2.90;99.90
21255;DHT22;10785;50.674;17.954;2023-02-10T03:53:40;-3.00;99.90
21255;DHT22;10785;50.674;17.954;2023-02-10T03:56:10;-3.00;99.90
21255;DHT22;10785;50.674;17.954;2023-02-10T03:58:39;-3.00;99.90
21255;DHT22;10785;50.674;17.954;2023-02-10T04:01:09;-3.00;99.90
21255;DHT22;10785;50.674;17.954;2023-02-10T04:03:38;-3.10;99.90
21255;DHT22;10785;50.674;17.954;2023-02-10T04:06:07;-3.20;99.90
21255;DHT22;10785;50.674;17.954;2023-02-10T04:08:36;-3.20;99.90
21255;DHT22;10785;50.674;17.954;2023-02-10T04:11:05;-3.20;99.90
21255;DHT22;10785;50.674;17.954;2023-02-10T04:13:36;-3.30;99.90
21255;DHT22;10785;50.674;17.954;2023-02-10T04:16:06;-3.30;99.90
21255;DHT22;10785;50.674;17.954;2023-02-10T04:18:36;-3.40;99.90
21255;DHT22;10785;50.674;17.954;2023-02-10T04:21:06;-3.40;99.90
21255;DHT22;10785;50.674;17.954;2023-02-10T04:23:36;-3.40;99.90
21255;DHT22;10785;50.674;17.954;2023-02-10T04:26:04;-3.40;99.90
21255;DHT22;10785;50.674;17.954;2023-02-10T04:28:33;-3.50;99.90
21255;DHT22;10785;50.674;17.954;2023-02-10T04:31:03;-3.50;99.90
21255;DHT22;10785;50.674;17.954;2023-02-10T04:33:32;-3.50;99.90
21255;DHT22;10785;50.674;17.954;2023-02-10T04:36:01;-3.60;99.90
21255;DHT22;10785;50.674;17.954;2023-02-10T04:38:31;-3.70;99.90
21255;DHT22;10785;50.674;17.954;2023-02-10T04:40:59;-3.70;99.90
21255;DHT22;10785;50.674;17.954;2023-02-10T04:43:30;-3.70;99.90
21255;DHT22;10785;50.674;17.954;2023-02-10T04:45:58;-3.70;99.90
21255;DHT22;10785;50.674;17.954;2023-02-10T04:48:28;-3.70;99.90
21255;DHT22;10785;50.674;17.954;2023-02-10T04:50:57;-3.70;99.90
21255;DHT22;10785;50.674;17.954;2023-02-10T04:53:25;-3.70;99.90
21255;DHT22;10785;50.674;17.954;2023-02-10T04:55:54;-3.70;99.90
21255;DHT22;10785;50.674;17.954;2023-02-10T04:58:22;-3.70;99.90
21255;DHT22;10785;50.674;17.954;2023-02-10T05:00:51;-3.70;99.90
21255;DHT22;10785;50.674;17.954;2023-02-10T05:03:22;-3.80;99.90
21255;DHT22;10785;50.674;17.954;2023-02-10T05:05:52;-3.70;99.90
21255;DHT22;10785;50.674;17.954;2023-02-10T05:08:21;-3.70;99.90
21255;DHT22;10785;50.674;17.954;2023-02-10T05:10:51;-3.70;99.90
21255;DHT22;10785;50.674;17.954;2023-02-10T05:13:20;-3.60;99.90
21255;DHT22;10785;50.674;17.954;2023-02-10T05:15:49;-3.60;99.90
21255;DHT22;10785;50.674;17.954;2023-02-10T05:18:17;-3.50;99.90
21255;DHT22;10785;50.674;17.954;2023-02-10T05:20:46;-3.50;99.90
21255;DHT22;10785;50.674;17.954;2023-02-10T05:23:16;-3.50;99.90
21255;DHT22;10785;50.674;17.954;2023-02-10T05:25:46;-3.50;99.90
21255;DHT22;10785;50.674;17.954;2023-02-10T05:28:15;-3.50;99.90
21255;DHT22;10785;50.674;17.954;2023-02-10T05:30:43;-3.40;99.90
21255;DHT22;10785;50.674;17.954;2023-02-10T05:33:12;-3.40;99.90
21255;DHT22;10785;50.674;17.954;2023-02-10T05:35:41;-3.40;99.90
21255;DHT22;10785;50.674;17.954;2023-02-10T05:38:10;-3.40;99.90
21255;DHT22;10785;50.674;17.954;2023-02-10T05:40:40;-3.40;99.90
21255;DHT22;10785;50.674;17.954;2023-02-10T05:43:08;-3.50;99.90
21255;DHT22;10785;50.674;17.954;2023-02-10T05:45:37;-3.50;99.90
21255;DHT22;10785;50.674;17.954;2023-02-10T05:48:06;-3.50;99.90
21255;DHT22;10785;50.674;17.954;2023-02-10T05:50:35;-3.50;99.90
21255;DHT22;10785;50.674;17.954;2023-02-10T05:53:13;-3.50;99.90
21255;DHT22;10785;50.674;17.954;2023-02-10T05:55:45;-3.60;99.90
21255;DHT22;10785;50.674;17.954;2023-02-10T05:58:14;-3.50;99.90
21255;DHT22;10785;50.674;17.954;2023-02-10T06:00:42;-3.50;99.90
21255;DHT22;10785;50.674;17.954;2023-02-10T06:03:11;-3.50;99.90
21255;DHT22;10785;50.674;17.954;2023-02-10T06:05:40;-3.50;99.90
21255;DHT22;10785;50.674;17.954;2023-02-10T06:08:10;-3.40;99.90
21255;DHT22;10785;50.674;17.954;2023-02-10T06:10:39;-3.40;99.90
21255;DHT22;10785;50.674;17.954;2023-02-10T06:13:09;-3.40;99.90
21255;DHT22;10785;50.674;17.954;2023-02-10T06:15:37;-3.40;99.90
21255;DHT22;10785;50.674;17.954;2023-02-10T06:18:06;-3.40;99.90
21255;DHT22;10785;50.674;17.954;2023-02-10T06:20:35;-3.30;99.90
21255;DHT22;10785;50.674;17.954;2023-02-10T06:23:03;-3.30;99.90
21255;DHT22;10785;50.674;17.954;2023-02-10T06:25:32;-3.20;99.90
21255;DHT22;10785;50.674;17.954;2023-02-10T06:28:03;-3.20;99.90
21255;DHT22;10785;50.674;17.954;2023-02-10T06:30:33;-3.20;99.90
21255;DHT22;10785;50.674;17.954;2023-02-10T06:33:02;-3.10;99.90
21255;DHT22;10785;50.674;17.954;2023-02-10T06:35:31;-3.10;99.90
21255;DHT22;10785;50.674;17.954;2023-02-10T06:38:00;-3.00;99.90
21255;DHT22;10785;50.674;17.954;2023-02-10T06:40:28;-3.00;99.90
21255;DHT22;10785;50.674;17.954;2023-02-10T06:42:57;-2.90;99.90
21255;DHT22;10785;50.674;17.954;2023-02-10T06:45:25;-2.90;99.90
21255;DHT22;10785;50.674;17.954;2023-02-10T06:47:55;-2.80;99.90
21255;DHT22;10785;50.674;17.954;2023-02-10T06:50:24;-2.70;99.90
21255;DHT22;10785;50.674;17.954;2023-02-10T06:52:53;-2.70;99.90
21255;DHT22;10785;50.674;17.954;2023-02-10T06:55:22;-2.60;99.90
21255;DHT22;10785;50.674;17.954;2023-02-10T06:57:51;-2.50;99.90
21255;DHT22;10785;50.674;17.954;2023-02-10T07:00:19;-2.40;99.90
21255;DHT22;10785;50.674;17.954;2023-02-10T07:02:48;-2.30;99.90
21255;DHT22;10785;50.674;17.954;2023-02-10T07:05:24;-2.20;99.90
21255;DHT22;10785;50.674;17.954;2023-02-10T07:07:53;-2.00;99.90
21255;DHT22;10785;50.674;17.954;2023-02-10T07:10:21;-1.90;99.90
21255;DHT22;10785;50.674;17.954;2023-02-10T07:12:50;-1.70;99.90
21255;DHT22;10785;50.674;17.954;2023-02-10T07:15:21;-1.60;99.80
21255;DHT22;10785;50.674;17.954;2023-02-10T07:17:50;-1.60;98.60
21255;DHT22;10785;50.674;17.954;2023-02-10T07:20:19;-1.60;98.30
21255;DHT22;10785;50.674;17.954;2023-02-10T07:22:49;-1.50;98.20
21255;DHT22;10785;50.674;17.954;2023-02-10T07:25:19;-1.50;97.60
21255;DHT22;10785;50.674;17.954;2023-02-10T07:27:47;-1.40;96.80
21255;DHT22;10785;50.674;17.954;2023-02-10T07:30:16;-1.40;97.10
21255;DHT22;10785;50.674;17.954;2023-02-10T07:32:45;-1.40;96.50
21255;DHT22;10785;50.674;17.954;2023-02-10T07:35:14;-1.30;96.20
21255;DHT22;10785;50.674;17.954;2023-02-10T07:37:42;-1.30;96.00
21255;DHT22;10785;50.674;17.954;2023-02-10T07:40:12;-1.20;95.80
21255;DHT22;10785;50.674;17.954;2023-02-10T07:42:41;-1.10;95.30
21255;DHT22;10785;50.674;17.954;2023-02-10T07:45:24;-1.00;95.30
21255;DHT22;10785;50.674;17.954;2023-02-10T07:47:58;-0.90;95.20
21255;DHT22;10785;50.674;17.954;2023-02-10T07:50:27;-0.90;94.50
21255;DHT22;10785;50.674;17.954;2023-02-10T07:52:59;-0.80;94.50
21255;DHT22;10785;50.674;17.954;2023-02-10T07:55:29;-0.80;94.80
21255;DHT22;10785;50.674;17.954;2023-02-10T07:57:58;-0.80;95.70
21255;DHT22;10785;50.674;17.954;2023-02-10T08:00:26;-0.80;96.00
21255;DHT22;10785;50.674;17.954;2023-02-10T08:02:55;-0.70;96.40
21255;DHT22;10785;50.674;17.954;2023-02-10T08:05:24;-0.60;96.80
21255;DHT22;10785;50.674;17.954;2023-02-10T08:07:53;-0.60;96.50
21255;DHT22;10785;50.674;17.954;2023-02-10T08:10:22;-0.50;96.70
21255;DHT22;10785;50.674;17.954;2023-02-10T08:12:52;-0.40;96.70
21255;DHT22;10785;50.674;17.954;2023-02-10T08:15:21;-0.40;96.60
21255;DHT22;10785;50.674;17.954;2023-02-10T08:17:49;-0.20;97.00
21255;DHT22;10785;50.674;17.954;2023-02-10T08:20:18;-0.20;96.30
21255;DHT22;10785;50.674;17.954;2023-02-10T08:22:46;-0.10;96.10
21255;DHT22;10785;50.674;17.954;2023-02-10T08:25:15;0.10;95.90
21255;DHT22;10785;50.674;17.954;2023-02-10T08:27:44;0.20;95.60
21255;DHT22;10785;50.674;17.954;2023-02-10T08:30:14;0.30;94.90
21255;DHT22;10785;50.674;17.954;2023-02-10T08:32:43;0.30;94.00
21255;DHT22;10785;50.674;17.954;2023-02-10T08:35:13;0.30;93.40
21255;DHT22;10785;50.674;17.954;2023-02-10T08:37:42;0.40;93.00
21255;DHT22;10785;50.674;17.954;2023-02-10T08:40:11;0.50;93.30
21255;DHT22;10785;50.674;17.954;2023-02-10T08:42:39;0.60;92.70
21255;DHT22;10785;50.674;17.954;2023-02-10T08:45:08;0.70;91.50
21255;DHT22;10785;50.674;17.954;2023-02-10T08:47:38;0.80;90.60
21255;DHT22;10785;50.674;17.954;2023-02-10T08:50:07;0.90;90.60
21255;DHT22;10785;50.674;17.954;2023-02-10T08:52:35;1.00;90.40
21255;DHT22;10785;50.674;17.954;2023-02-10T08:55:04;1.20;90.20
21255;DHT22;10785;50.674;17.954;2023-02-10T08:57:34;1.50;87.40
21255;DHT22;10785;50.674;17.954;2023-02-10T09:00:04;1.80;84.30
21255;DHT22;10785;50.674;17.954;2023-02-10T09:02:33;1.90;80.00
21255;DHT22;10785;50.674;17.954;2023-02-10T09:05:04;1.80;79.30
21255;DHT22;10785;50.674;17.954;2023-02-10T09:07:37;1.80;75.30
21255;DHT22;10785;50.674;17.954;2023-02-10T09:10:07;1.90;75.30
21255;DHT22;10785;50.674;17.954;2023-02-10T09:12:39;2.00;75.80
21255;DHT22;10785;50.674;17.954;2023-02-10T09:15:08;2.10;75.20
21255;DHT22;10785;50.674;17.954;2023-02-10T09:17:37;2.00;72.20
21255;DHT22;10785;50.674;17.954;2023-02-10T09:20:08;2.00;72.20
21255;DHT22;10785;50.674;17.954;2023-02-10T09:22:37;2.10;71.30
21255;DHT22;10785;50.674;17.954;2023-02-10T09:25:06;2.20;70.20
21255;DHT22;10785;50.674;17.954;2023-02-10T09:27:35;2.20;71.00
21255;DHT22;10785;50.674;17.954;2023-02-10T09:30:06;2.20;69.60
21255;DHT22;10785;50.674;17.954;2023-02-10T09:32:35;2.30;70.10
21255;DHT22;10785;50.674;17.954;2023-02-10T09:35:04;2.30;67.90
21255;DHT22;10785;50.674;17.954;2023-02-10T09:37:35;2.30;70.10
21255;DHT22;10785;50.674;17.954;2023-02-10T09:40:23;2.30;69.30
21255;DHT22;10785;50.674;17.954;2023-02-10T09:43:03;2.30;69.00
21255;DHT22;10785;50.674;17.954;2023-02-10T09:45:36;2.20;70.20
21255;DHT22;10785;50.674;17.954;2023-02-10T09:48:21;2.30;69.60
21255;DHT22;10785;50.674;17.954;2023-02-10T09:50:59;2.40;69.30
21255;DHT22;10785;50.674;17.954;2023-02-10T09:53:35;2.50;69.20
21255;DHT22;10785;50.674;17.954;2023-02-10T09:56:07;2.60;67.20
21255;DHT22;10785;50.674;17.954;2023-02-10T09:58:40;2.50;66.70
21255;DHT22;10785;50.674;17.954;2023-02-10T10:01:14;2.70;68.30
21255;DHT22;10785;50.674;17.954;2023-02-10T10:03:47;2.70;66.00
21255;DHT22;10785;50.674;17.954;2023-02-10T10:06:21;2.70;65.60
21255;DHT22;10785;50.674;17.954;2023-02-10T10:09:00;2.80;66.20
21255;DHT22;10785;50.674;17.954;2023-02-10T10:11:35;2.80;64.70
21255;DHT22;10785;50.674;17.954;2023-02-10T10:14:13;2.90;64.30
21255;DHT22;10785;50.674;17.954;2023-02-10T10:19:54;3.20;62.00
21255;DHT22;10785;50.674;17.954;2023-02-10T10:22:36;3.30;61.80
21255;DHT22;10785;50.674;17.954;2023-02-10T10:25:49;3.30;58.30
21255;DHT22;10785;50.674;17.954;2023-02-10T10:28:26;3.40;55.40
21255;DHT22;10785;50.674;17.954;2023-02-10T10:31:03;3.50;52.60
21255;DHT22;10785;50.674;17.954;2023-02-10T10:33:39;3.50;51.10
21255;DHT22;10785;50.674;17.954;2023-02-10T10:36:13;3.50;50.30
21255;DHT22;10785;50.674;17.954;2023-02-10T10:38:46;3.50;50.70
21255;DHT22;10785;50.674;17.954;2023-02-10T10:41:18;3.50;50.50
21255;DHT22;10785;50.674;17.954;2023-02-10T10:43:52;3.40;51.20
21255;DHT22;10785;50.674;17.954;2023-02-10T10:46:26;3.30;51.00
21255;DHT22;10785;50.674;17.954;2023-02-10T10:48:57;3.30;51.00
21255;DHT22;10785;50.674;17.954;2023-02-10T10:51:26;3.30;50.90
21255;DHT22;10785;50.674;17.954;2023-02-10T10:53:56;3.10;51.60
21255;DHT22;10785;50.674;17.954;2023-02-10T10:56:33;3.00;52.60
21255;DHT22;10785;50.674;17.954;2023-02-10T10:59:10;3.20;53.00
21255;DHT22;10785;50.674;17.954;2023-02-10T11:01:41;3.20;52.20
21255;DHT22;10785;50.674;17.954;2023-02-10T11:04:13;3.20;52.90
21255;DHT22;10785;50.674;17.954;2023-02-10T11:06:43;3.20;53.20
21255;DHT22;10785;50.674;17.954;2023-02-10T11:09:21;3.10;53.80
21255;DHT22;10785;50.674;17.954;2023-02-10T11:11:53;3.00;54.30
21255;DHT22;10785;50.674;17.954;2023-02-10T11:14:29;3.00;54.70
21255;DHT22;10785;50.674;17.954;2023-02-10T11:17:04;3.10;55.30
21255;DHT22;10785;50.674;17.954;2023-02-10T11:19:35;3.10;55.50
21255;DHT22;10785;50.674;17.954;2023-02-10T11:22:18;3.10;56.20
21255;DHT22;10785;50.674;17.954;2023-02-10T11:24:50;3.20;56.80
21255;DHT22;10785;50.674;17.954;2023-02-10T11:27:21;3.20;57.00
21255;DHT22;10785;50.674;17.954;2023-02-10T11:29:51;3.20;57.50
21255;DHT22;10785;50.674;17.954;2023-02-10T11:32:21;3.20;59.00
21255;DHT22;10785;50.674;17.954;2023-02-10T11:34:54;3.30;60.20
21255;DHT22;10785;50.674;17.954;2023-02-10T11:37:27;3.10;61.50
21255;DHT22;10785;50.674;17.954;2023-02-10T11:39:57;3.10;63.90
21255;DHT22;10785;50.674;17.954;2023-02-10T11:42:30;3.30;63.90
21255;DHT22;10785;50.674;17.954;2023-02-10T11:45:03;3.40;63.00
21255;DHT22;10785;50.674;17.954;2023-02-10T11:47:44;3.60;61.90
21255;DHT22;10785;50.674;17.954;2023-02-10T11:50:19;3.80;59.40
21255;DHT22;10785;50.674;17.954;2023-02-10T11:52:48;3.90;59.20
21255;DHT22;10785;50.674;17.954;2023-02-10T11:55:17;4.10;58.30
21255;DHT22;10785;50.674;17.954;2023-02-10T11:57:52;4.20;57.10
21255;DHT22;10785;50.674;17.954;2023-02-10T12:00:47;4.40;55.90
21255;DHT22;10785;50.674;17.954;2023-02-10T12:03:33;4.50;55.30
21255;DHT22;10785;50.674;17.954;2023-02-10T12:06:05;4.40;55.20
21255;DHT22;10785;50.674;17.954;2023-02-10T12:08:41;4.50;54.70
21255;DHT22;10785;50.674;17.954;2023-02-10T12:11:19;4.40;54.10
21255;DHT22;10785;50.674;17.954;2023-02-10T12:13:59;4.40;53.90
21255;DHT22;10785;50.674;17.954;2023-02-10T12:16:46;4.40;54.30
21255;DHT22;10785;50.674;17.954;2023-02-10T12:19:25;4.50;54.80
21255;DHT22;10785;50.674;17.954;2023-02-10T12:22:03;4.60;53.80
21255;DHT22;10785;50.674;17.954;2023-02-10T12:24:54;4.50;53.40
21255;DHT22;10785;50.674;17.954;2023-02-10T12:27:30;4.60;53.20
21255;DHT22;10785;50.674;17.954;2023-02-10T12:30:09;4.50;52.80
21255;DHT22;10785;50.674;17.954;2023-02-10T12:32:50;4.60;53.00
21255;DHT22;10785;50.674;17.954;2023-02-10T12:35:29;4.50;53.80
21255;DHT22;10785;50.674;17.954;2023-02-10T12:38:15;4.60;53.70
21255;DHT22;10785;50.674;17.954;2023-02-10T12:40:56;4.60;53.90
21255;DHT22;10785;50.674;17.954;2023-02-10T12:43:38;4.60;54.70
21255;DHT22;10785;50.674;17.954;2023-02-10T12:46:17;4.70;54.60
21255;DHT22;10785;50.674;17.954;2023-02-10T12:49:02;4.60;55.90
21255;DHT22;10785;50.674;17.954;2023-02-10T12:51:44;4.60;55.40
21255;DHT22;10785;50.674;17.954;2023-02-10T12:54:17;4.60;55.60
21255;DHT22;10785;50.674;17.954;2023-02-10T12:56:52;4.60;55.50
21255;DHT22;10785;50.674;17.954;2023-02-10T12:59:24;4.60;55.80
21255;DHT22;10785;50.674;17.954;2023-02-10T13:02:03;4.60;55.40
21255;DHT22;10785;50.674;17.954;2023-02-10T13:04:37;4.60;55.70
21255;DHT22;10785;50.674;17.954;2023-02-10T13:07:20;4.40;56.80
21255;DHT22;10785;50.674;17.954;2023-02-10T13:09:57;4.30;57.80
21255;DHT22;10785;50.674;17.954;2023-02-10T13:12:32;4.30;57.60
21255;DHT22;10785;50.674;17.954;2023-02-10T13:15:04;4.40;57.30
21255;DHT22;10785;50.674;17.954;2023-02-10T13:17:39;4.40;57.40
21255;DHT22;10785;50.674;17.954;2023-02-10T13:20:26;4.50;57.10
21255;DHT22;10785;50.674;17.954;2023-02-10T13:23:04;4.40;57.40
21255;DHT22;10785;50.674;17.954;2023-02-10T13:25:41;4.40;56.30
21255;DHT22;10785;50.674;17.954;2023-02-10T13:28:19;4.50;56.90
21255;DHT22;10785;50.674;17.954;2023-02-10T13:31:06;4.40;55.80
21255;DHT22;10785;50.674;17.954;2023-02-10T13:33:49;4.30;55.40
21255;DHT22;10785;50.674;17.954;2023-02-10T13:36:21;4.20;56.10
21255;DHT22;10785;50.674;17.954;2023-02-10T13:38:58;4.20;56.10
21255;DHT22;10785;50.674;17.954;2023-02-10T13:41:31;4.30;56.30
21255;DHT22;10785;50.674;17.954;2023-02-10T13:44:19;4.20;56.60
21255;DHT22;10785;50.674;17.954;2023-02-10T13:46:54;4.20;56.30
21255;DHT22;10785;50.674;17.954;2023-02-10T13:49:25;4.20;55.30
21255;DHT22;10785;50.674;17.954;2023-02-10T13:52:11;4.10;55.20
21255;DHT22;10785;50.674;17.954;2023-02-10T13:54:41;4.10;55.50
21255;DHT22;10785;50.674;17.954;2023-02-10T13:57:27;4.10;55.50
21255;DHT22;10785;50.674;17.954;2023-02-10T14:00:11;4.00;55.80
21255;DHT22;10785;50.674;17.954;2023-02-10T14:02:40;3.90;56.10
21255;DHT22;10785;50.674;17.954;2023-02-10T14:05:27;3.90;56.50
21255;DHT22;10785;50.674;17.954;2023-02-10T14:07:56;3.90;56.60
21255;DHT22;10785;50.674;17.954;2023-02-10T14:10:32;3.90;56.70
21255;DHT22;10785;50.674;17.954;2023-02-10T14:13:04;4.00;57.00
21255;DHT22;10785;50.674;17.954;2023-02-10T14:15:35;4.00;57.10
21255;DHT22;10785;50.674;17.954;2023-02-10T14:18:19;4.10;57.10
21255;DHT22;10785;50.674;17.954;2023-02-10T14:20:56;4.10;56.80
21255;DHT22;10785;50.674;17.954;2023-02-10T14:23:25;4.10;57.60
21255;DHT22;10785;50.674;17.954;2023-02-10T14:26:01;4.10;57.90
21255;DHT22;10785;50.674;17.954;2023-02-10T14:28:34;4.10;58.10
21255;DHT22;10785;50.674;17.954;2023-02-10T14:31:06;4.00;58.50
21255;DHT22;10785;50.674;17.954;2023-02-10T14:33:39;3.90;59.70
21255;DHT22;10785;50.674;17.954;2023-02-10T14:36:18;3.90;60.50
21255;DHT22;10785;50.674;17.954;2023-02-10T14:38:50;3.90;61.30
21255;DHT22;10785;50.674;17.954;2023-02-10T14:41:19;3.90;61.50
21255;DHT22;10785;50.674;17.954;2023-02-10T14:43:49;3.90;61.60
21255;DHT22;10785;50.674;17.954;2023-02-10T14:46:34;3.90;61.20
21255;DHT22;10785;50.674;17.954;2023-02-10T14:49:08;4.10;61.30
21255;DHT22;10785;50.674;17.954;2023-02-10T14:51:42;3.90;60.90
21255;DHT22;10785;50.674;17.954;2023-02-10T14:54:15;4.00;61.10
21255;DHT22;10785;50.674;17.954;2023-02-10T14:56:52;4.00;61.00
21255;DHT22;10785;50.674;17.954;2023-02-10T14:59:23;4.00;61.60
21255;DHT22;10785;50.674;17.954;2023-02-10T15:01:53;4.00;60.60
21255;DHT22;10785;50.674;17.954;2023-02-10T15:04:33;3.90;60.90
21255;DHT22;10785;50.674;17.954;2023-02-10T15:07:04;3.90;61.30
21255;DHT22;10785;50.674;17.954;2023-02-10T15:09:34;3.90;61.60
21255;DHT22;10785;50.674;17.954;2023-02-10T15:12:06;3.90;61.80
21255;DHT22;10785;50.674;17.954;2023-02-10T15:14:48;3.90;62.10
21255;DHT22;10785;50.674;17.954;2023-02-10T15:17:19;3.90;62.30
21255;DHT22;10785;50.674;17.954;2023-02-10T15:19:55;3.80;62.40
21255;DHT22;10785;50.674;17.954;2023-02-10T15:22:37;3.80;62.30
21255;DHT22;10785;50.674;17.954;2023-02-10T15:25:38;3.80;62.30
21255;DHT22;10785;50.674;17.954;2023-02-10T15:28:24;3.80;62.50
21255;DHT22;10785;50.674;17.954;2023-02-10T15:30:57;3.80;62.60
21255;DHT22;10785;50.674;17.954;2023-02-10T15:33:28;3.70;62.30
21255;DHT22;10785;50.674;17.954;2023-02-10T15:38:52;3.70;62.90
21255;DHT22;10785;50.674;17.954;2023-02-10T15:41:33;3.70;62.90
21255;DHT22;10785;50.674;17.954;2023-02-10T15:44:20;3.70;63.30
21255;DHT22;10785;50.674;17.954;2023-02-10T15:47:05;3.60;63.40
21255;DHT22;10785;50.674;17.954;2023-02-10T15:49:41;3.60;63.30
21255;DHT22;10785;50.674;17.954;2023-02-10T15:52:10;3.60;63.50
21255;DHT22;10785;50.674;17.954;2023-02-10T15:54:41;3.60;63.60
21255;DHT22;10785;50.674;17.954;2023-02-10T15:57:11;3.60;63.80
21255;DHT22;10785;50.674;17.954;2023-02-10T15:59:40;3.60;64.10
21255;DHT22;10785;50.674;17.954;2023-02-10T16:02:12;3.60;64.60
21255;DHT22;10785;50.674;17.954;2023-02-10T16:04:41;3.50;64.90
21255;DHT22;10785;50.674;17.954;2023-02-10T16:07:17;3.50;65.30
21255;DHT22;10785;50.674;17.954;2023-02-10T16:09:48;3.50;66.00
21255;DHT22;10785;50.674;17.954;2023-02-10T16:12:17;3.40;66.90
21255;DHT22;10785;50.674;17.954;2023-02-10T16:14:46;3.40;67.20
21255;DHT22;10785;50.674;17.954;2023-02-10T16:17:20;3.40;67.80
21255;DHT22;10785;50.674;17.954;2023-02-10T16:19:49;3.40;68.20
21255;DHT22;10785;50.674;17.954;2023-02-10T16:22:18;3.40;68.30
21255;DHT22;10785;50.674;17.954;2023-02-10T16:24:48;3.30;68.50
21255;DHT22;10785;50.674;17.954;2023-02-10T16:27:17;3.40;68.80
21255;DHT22;10785;50.674;17.954;2023-02-10T16:29:45;3.30;68.90
21255;DHT22;10785;50.674;17.954;2023-02-10T16:32:15;3.30;69.00
21255;DHT22;10785;50.674;17.954;2023-02-10T16:34:43;3.30;69.10
21255;DHT22;10785;50.674;17.954;2023-02-10T16:37:18;3.30;69.40
21255;DHT22;10785;50.674;17.954;2023-02-10T16:39:49;3.30;69.80
21255;DHT22;10785;50.674;17.954;2023-02-10T16:42:18;3.30;70.40